sensor_id;sensor_type;location;lat;lon;timestamp;temperature;humidity
65584;DHT22;62116;43.582;1.470;2023-05-07T00:00:16;17.99;85.11
65584;DHT22;62116;43.582;1.470;2023-05-07T00:02:43;18.02;85.20
65584;DHT22;62116;43.582;1.470;2023-05-07T00:05:10;17.99;85.17
65584;DHT22;62116;43.582;1.470;2023-05-07T00:07:35;17.96;84.98
65584;DHT22;62116;43.582;1.470;2023-05-07T00:10:02;17.99;84.84
65584;DHT22;62116;43.582;1.470;2023-05-07T00:12:27;17.99;84.94
65584;DHT22;62116;43.582;1.470;2023-05-07T00:14:52;18.00;84.90
65584;DHT22;62116;43.582;1.470;2023-05-07T00:17:18;17.99;85.06
65584;DHT22;62116;43.582;1.470;2023-05-07T00:19:43;18.03;85.16
65584;DHT22;62116;43.582;1.470;2023-05-07T00:22:09;18.09;84.48
65584;DHT22;62116;43.582;1.470;2023-05-07T00:24:34;18.10;84.70
65584;DHT22;62116;43.582;1.470;2023-05-07T00:27:00;18.06;84.66
65584;DHT22;62116;43.582;1.470;2023-05-07T00:29:25;18.03;84.71
65584;DHT22;62116;43.582;1.470;2023-05-07T00:31:50;17.99;84.66
65584;DHT22;62116;43.582;1.470;2023-05-07T00:34:16;18.03;85.15
65584;DHT22;62116;43.582;1.470;2023-05-07T00:36:41;18.05;84.78
65584;DHT22;62116;43.582;1.470;2023-05-07T00:39:07;18.05;84.61
65584;DHT22;62116;43.582;1.470;2023-05-07T00:41:32;17.95;84.73
65584;DHT22;62116;43.582;1.470;2023-05-07T00:43:58;17.92;84.73
65584;DHT22;62116;43.582;1.470;2023-05-07T00:46:23;17.85;84.66
65584;DHT22;62116;43.582;1.470;2023-05-07T00:48:53;17.81;84.93
65584;DHT22;62116;43.582;1.470;2023-05-07T00:51:18;17.75;84.97
65584;DHT22;62116;43.582;1.470;2023-05-07T00:53:45;17.72;85.27
65584;DHT22;62116;43.582;1.470;2023-05-07T00:56:11;17.75;85.63
65584;DHT22;62116;43.582;1.470;2023-05-07T00:58:37;17.72;85.50
65584;DHT22;62116;43.582;1.470;2023-05-07T01:01:03;17.75;85.40
65584;DHT22;62116;43.582;1.470;2023-05-07T01:03:28;17.76;85.03
65584;DHT22;62116;43.582;1.470;2023-05-07T01:05:55;17.71;85.13
65584;DHT22;62116;43.582;1.470;2023-05-07T01:08:23;17.65;85.00
65584;DHT22;62116;43.582;1.470;2023-05-07T01:10:50;17.62;85.23
65584;DHT22;62116;43.582;1.470;2023-05-07T01:13:17;17.62;85.62
65584;DHT22;62116;43.582;1.470;2023-05-07T01:15:43;17.68;84.99
65584;DHT22;62116;43.582;1.470;2023-05-07T01:18:08;17.68;85.35
65584;DHT22;62116;43.582;1.470;2023-05-07T01:20:34;17.65;85.37
65584;DHT22;62116;43.582;1.470;2023-05-07T01:23:00;17.68;85.00
65584;DHT22;62116;43.582;1.470;2023-05-07T01:25:26;17.61;84.96
65584;DHT22;62116;43.582;1.470;2023-05-07T01:27:52;17.58;85.04
65584;DHT22;62116;43.582;1.470;2023-05-07T01:30:18;17.59;85.20
65584;DHT22;62116;43.582;1.470;2023-05-07T01:33:10;17.52;84.95
65584;DHT22;62116;43.582;1.470;2023-05-07T01:35:39;17.51;85.22
65584;DHT22;62116;43.582;1.470;2023-05-07T01:38:06;17.46;84.67
65584;DHT22;62116;43.582;1.470;2023-05-07T01:40:32;17.42;85.08
65584;DHT22;62116;43.582;1.470;2023-05-07T01:42:59;17.42;85.32
65584;DHT22;62116;43.582;1.470;2023-05-07T01:45:25;17.43;85.38
65584;DHT22;62116;43.582;1.470;2023-05-07T01:47:51;17.46;85.10
65584;DHT22;62116;43.582;1.470;2023-05-07T01:50:18;17.46;85.55
65584;DHT22;62116;43.582;1.470;2023-05-07T01:52:44;17.49;85.29
65584;DHT22;62116;43.582;1.470;2023-05-07T01:55:10;17.51;85.08
65584;DHT22;62116;43.582;1.470;2023-05-07T01:57:35;17.53;84.89
65584;DHT22;62116;43.582;1.470;2023-05-07T02:00:01;17.55;84.85
65584;DHT22;62116;43.582;1.470;2023-05-07T02:02:31;17.58;84.83
65584;DHT22;62116;43.582;1.470;2023-05-07T02:04:56;17.58;84.98
65584;DHT22;62116;43.582;1.470;2023-05-07T02:07:22;17.58;85.05
65584;DHT22;62116;43.582;1.470;2023-05-07T02:09:47;17.58;84.99
65584;DHT22;62116;43.582;1.470;2023-05-07T02:12:13;17.58;84.76
65584;DHT22;62116;43.582;1.470;2023-05-07T02:14:38;17.56;84.48
65584;DHT22;62116;43.582;1.470;2023-05-07T02:17:03;17.58;84.89
65584;DHT22;62116;43.582;1.470;2023-05-07T02:19:29;17.58;84.87
65584;DHT22;62116;43.582;1.470;2023-05-07T02:21:54;17.58;85.04
65584;DHT22;62116;43.582;1.470;2023-05-07T02:24:20;17.61;84.53
65584;DHT22;62116;43.582;1.470;2023-05-07T02:26:46;17.63;84.70
65584;DHT22;62116;43.582;1.470;2023-05-07T02:29:11;17.66;84.66
65584;DHT22;62116;43.582;1.470;2023-05-07T02:31:36;17.71;84.61
65584;DHT22;62116;43.582;1.470;2023-05-07T02:34:02;17.73;84.79
65584;DHT22;62116;43.582;1.470;2023-05-07T02:36:27;17.76;84.41
65584;DHT22;62116;43.582;1.470;2023-05-07T02:38:53;17.72;84.41
65584;DHT22;62116;43.582;1.470;2023-05-07T02:41:18;17.71;84.26
65584;DHT22;62116;43.582;1.470;2023-05-07T02:43:45;17.68;84.29
65584;DHT22;62116;43.582;1.470;2023-05-07T02:46:11;17.58;83.99
65584;DHT22;62116;43.582;1.470;2023-05-07T02:48:36;17.62;84.24
65584;DHT22;62116;43.582;1.470;2023-05-07T02:51:02;17.59;84.24
65584;DHT22;62116;43.582;1.470;2023-05-07T02:53:28;17.62;84.53
65584;DHT22;62116;43.582;1.470;2023-05-07T02:55:58;17.59;84.39
65584;DHT22;62116;43.582;1.470;2023-05-07T02:58:24;17.53;84.11
65584;DHT22;62116;43.582;1.470;2023-05-07T03:00:50;17.53;84.07
65584;DHT22;62116;43.582;1.470;2023-05-07T03:03:16;17.46;83.97
65584;DHT22;62116;43.582;1.470;2023-05-07T03:05:42;17.41;84.14
65584;DHT22;62116;43.582;1.470;2023-05-07T03:08:08;17.42;84.43
65584;DHT22;62116;43.582;1.470;2023-05-07T03:10:33;17.34;84.37
65584;DHT22;62116;43.582;1.470;2023-05-07T03:12:59;17.34;84.39
65584;DHT22;62116;43.582;1.470;2023-05-07T03:15:24;17.28;84.51
65584;DHT22;62116;43.582;1.470;2023-05-07T03:17:50;17.27;84.84
65584;DHT22;62116;43.582;1.470;2023-05-07T03:20:15;17.27;84.52
65584;DHT22;62116;43.582;1.470;2023-05-07T03:22:41;17.27;84.21
65584;DHT22;62116;43.582;1.470;2023-05-07T03:25:07;17.22;84.37
65584;DHT22;62116;43.582;1.470;2023-05-07T03:27:32;17.21;84.20
65584;DHT22;62116;43.582;1.470;2023-05-07T03:29:58;17.20;84.64
65584;DHT22;62116;43.582;1.470;2023-05-07T03:32:23;17.17;84.47
65584;DHT22;62116;43.582;1.470;2023-05-07T03:34:49;17.14;84.30
65584;DHT22;62116;43.582;1.470;2023-05-07T03:37:14;17.10;84.50
65584;DHT22;62116;43.582;1.470;2023-05-07T03:39:40;17.07;84.87
65584;DHT22;62116;43.582;1.470;2023-05-07T03:42:05;17.12;85.18
65584;DHT22;62116;43.582;1.470;2023-05-07T03:44:31;17.14;84.99
65584;DHT22;62116;43.582;1.470;2023-05-07T03:46:56;17.22;84.68
65584;DHT22;62116;43.582;1.470;2023-05-07T03:49:22;17.21;84.84
65584;DHT22;62116;43.582;1.470;2023-05-07T03:51:50;17.21;84.82
65584;DHT22;62116;43.582;1.470;2023-05-07T03:54:15;17.24;84.75
65584;DHT22;62116;43.582;1.470;2023-05-07T03:56:41;17.27;84.46
65584;DHT22;62116;43.582;1.470;2023-05-07T03:59:06;17.25;84.77
65584;DHT22;62116;43.582;1.470;2023-05-07T04:01:31;17.22;84.82
65584;DHT22;62116;43.582;1.470;2023-05-07T04:03:58;17.20;84.85
65584;DHT22;62116;43.582;1.470;2023-05-07T04:06:23;17.15;84.66
65584;DHT22;62116;43.582;1.470;2023-05-07T04:08:49;17.11;85.09
65584;DHT22;62116;43.582;1.470;2023-05-07T04:11:15;17.07;85.13
65584;DHT22;62116;43.582;1.470;2023-05-07T04:13:40;17.03;85.27
65584;DHT22;62116;43.582;1.470;2023-05-07T04:16:06;17.06;85.62
65584;DHT22;62116;43.582;1.470;2023-05-07T04:18:31;17.07;85.43
65584;DHT22;62116;43.582;1.470;2023-05-07T04:20:57;17.08;85.20
65584;DHT22;62116;43.582;1.470;2023-05-07T04:23:22;17.07;84.87
65584;DHT22;62116;43.582;1.470;2023-05-07T04:25:48;16.98;84.64
65584;DHT22;62116;43.582;1.470;2023-05-07T04:28:13;17.00;84.80
65584;DHT22;62116;43.582;1.470;2023-05-07T04:30:39;16.92;84.54
65584;DHT22;62116;43.582;1.470;2023-05-07T04:33:04;16.90;84.27
65584;DHT22;62116;43.582;1.470;2023-05-07T04:35:32;16.87;84.57
65584;DHT22;62116;43.582;1.470;2023-05-07T04:37:57;16.85;84.93
65584;DHT22;62116;43.582;1.470;2023-05-07T04:40:22;16.87;84.42
65584;DHT22;62116;43.582;1.470;2023-05-07T04:42:48;16.83;84.31
65584;DHT22;62116;43.582;1.470;2023-05-07T04:45:13;16.84;84.65
65584;DHT22;62116;43.582;1.470;2023-05-07T04:47:39;16.80;84.42
65584;DHT22;62116;43.582;1.470;2023-05-07T04:50:09;16.83;84.56
65584;DHT22;62116;43.582;1.470;2023-05-07T04:52:35;16.87;84.77
65584;DHT22;62116;43.582;1.470;2023-05-07T04:55:00;16.85;84.64
65584;DHT22;62116;43.582;1.470;2023-05-07T04:57:26;16.83;84.44
65584;DHT22;62116;43.582;1.470;2023-05-07T04:59:53;16.80;84.54
65584;DHT22;62116;43.582;1.470;2023-05-07T05:02:18;16.78;84.67
65584;DHT22;62116;43.582;1.470;2023-05-07T05:04:44;16.78;84.66
65584;DHT22;62116;43.582;1.470;2023-05-07T05:07:09;16.81;84.70
65584;DHT22;62116;43.582;1.470;2023-05-07T05:09:35;16.80;84.53
65584;DHT22;62116;43.582;1.470;2023-05-07T05:12:00;16.78;84.62
65584;DHT22;62116;43.582;1.470;2023-05-07T05:14:26;16.83;85.09
65584;DHT22;62116;43.582;1.470;2023-05-07T05:16:51;16.83;84.83
65584;DHT22;62116;43.582;1.470;2023-05-07T05:19:17;16.83;84.51
65584;DHT22;62116;43.582;1.470;2023-05-07T05:21:42;16.77;84.26
65584;DHT22;62116;43.582;1.470;2023-05-07T05:24:07;16.76;84.53
65584;DHT22;62116;43.582;1.470;2023-05-07T05:26:33;16.78;84.85
65584;DHT22;62116;43.582;1.470;2023-05-07T05:28:59;16.81;84.85
65584;DHT22;62116;43.582;1.470;2023-05-07T05:31:24;16.80;84.74
65584;DHT22;62116;43.582;1.470;2023-05-07T05:33:49;16.81;84.61
65584;DHT22;62116;43.582;1.470;2023-05-07T05:36:15;16.80;84.66
65584;DHT22;62116;43.582;1.470;2023-05-07T05:38:40;16.83;84.42
65584;DHT22;62116;43.582;1.470;2023-05-07T05:41:06;16.84;84.56
65584;DHT22;62116;43.582;1.470;2023-05-07T05:43:31;16.83;84.32
65584;DHT22;62116;43.582;1.470;2023-05-07T05:45:57;16.80;83.96
65584;DHT22;62116;43.582;1.470;2023-05-07T05:48:23;16.78;84.34
65584;DHT22;62116;43.582;1.470;2023-05-07T05:50:48;16.80;84.46
65584;DHT22;62116;43.582;1.470;2023-05-07T05:53:14;16.77;84.35
65584;DHT22;62116;43.582;1.470;2023-05-07T05:55:39;16.73;84.28
65584;DHT22;62116;43.582;1.470;2023-05-07T05:58:05;16.71;83.92
65584;DHT22;62116;43.582;1.470;2023-05-07T06:00:31;16.70;84.20
65584;DHT22;62116;43.582;1.470;2023-05-07T06:02:56;16.76;84.30
65584;DHT22;62116;43.582;1.470;2023-05-07T06:05:22;16.74;84.14
65584;DHT22;62116;43.582;1.470;2023-05-07T06:07:47;16.76;84.07
65584;DHT22;62116;43.582;1.470;2023-05-07T06:10:13;16.77;84.01
65584;DHT22;62116;43.582;1.470;2023-05-07T06:12:38;16.74;83.92
65584;DHT22;62116;43.582;1.470;2023-05-07T06:15:04;16.76;83.97
65584;DHT22;62116;43.582;1.470;2023-05-07T06:17:29;16.71;84.01
65584;DHT22;62116;43.582;1.470;2023-05-07T06:19:55;16.73;84.12
65584;DHT22;62116;43.582;1.470;2023-05-07T06:22:21;16.74;84.04
65584;DHT22;62116;43.582;1.470;2023-05-07T06:24:46;16.73;84.39
65584;DHT22;62116;43.582;1.470;2023-05-07T06:27:12;16.74;84.37
65584;DHT22;62116;43.582;1.470;2023-05-07T06:29:37;16.77;84.32
65584;DHT22;62116;43.582;1.470;2023-05-07T06:32:10;16.77;84.38
65584;DHT22;62116;43.582;1.470;2023-05-07T06:34:36;16.74;84.20
65584;DHT22;62116;43.582;1.470;2023-05-07T06:37:02;16.76;84.12
65584;DHT22;62116;43.582;1.470;2023-05-07T06:39:27;16.68;84.01
65584;DHT22;62116;43.582;1.470;2023-05-07T06:41:53;16.64;84.01
65584;DHT22;62116;43.582;1.470;2023-05-07T06:44:18;16.64;83.81
65584;DHT22;62116;43.582;1.470;2023-05-07T06:46:44;16.61;83.87
65584;DHT22;62116;43.582;1.470;2023-05-07T06:49:10;16.63;84.26
65584;DHT22;62116;43.582;1.470;2023-05-07T06:51:36;16.63;84.27
65584;DHT22;62116;43.582;1.470;2023-05-07T06:54:01;16.67;84.42
65584;DHT22;62116;43.582;1.470;2023-05-07T06:56:27;16.67;84.15
65584;DHT22;62116;43.582;1.470;2023-05-07T06:58:52;16.67;84.17
65584;DHT22;62116;43.582;1.470;2023-05-07T07:01:18;16.70;84.41
65584;DHT22;62116;43.582;1.470;2023-05-07T07:03:43;16.70;84.41
65584;DHT22;62116;43.582;1.470;2023-05-07T07:06:08;16.74;83.99
65584;DHT22;62116;43.582;1.470;2023-05-07T07:08:34;16.71;83.96
65584;DHT22;62116;43.582;1.470;2023-05-07T07:11:00;16.70;83.76
65584;DHT22;62116;43.582;1.470;2023-05-07T07:13:25;16.68;84.08
65584;DHT22;62116;43.582;1.470;2023-05-07T07:15:51;16.68;84.11
65584;DHT22;62116;43.582;1.470;2023-05-07T07:18:18;16.68;84.28
65584;DHT22;62116;43.582;1.470;2023-05-07T07:20:43;16.66;84.52
65584;DHT22;62116;43.582;1.470;2023-05-07T07:23:09;16.68;84.58
65584;DHT22;62116;43.582;1.470;2023-05-07T07:25:35;16.71;84.48
65584;DHT22;62116;43.582;1.470;2023-05-07T07:28:00;16.71;84.76
65584;DHT22;62116;43.582;1.470;2023-05-07T07:30:26;16.71;84.73
65584;DHT22;62116;43.582;1.470;2023-05-07T07:32:51;16.74;84.75
65584;DHT22;62116;43.582;1.470;2023-05-07T07:35:17;16.78;84.86
65584;DHT22;62116;43.582;1.470;2023-05-07T07:37:43;16.80;84.87
65584;DHT22;62116;43.582;1.470;2023-05-07T07:40:09;16.91;84.90
65584;DHT22;62116;43.582;1.470;2023-05-07T07:42:34;16.94;84.55
65584;DHT22;62116;43.582;1.470;2023-05-07T07:45:00;16.94;83.89
65584;DHT22;62116;43.582;1.470;2023-05-07T07:47:25;17.00;84.23
65584;DHT22;62116;43.582;1.470;2023-05-07T07:49:51;17.01;84.33
65584;DHT22;62116;43.582;1.470;2023-05-07T07:52:16;17.08;84.36
65584;DHT22;62116;43.582;1.470;2023-05-07T07:54:41;17.11;84.10
65584;DHT22;62116;43.582;1.470;2023-05-07T07:57:08;17.08;83.09
65584;DHT22;62116;43.582;1.470;2023-05-07T07:59:33;17.01;82.38
65584;DHT22;62116;43.582;1.470;2023-05-07T08:01:58;17.01;82.82
65584;DHT22;62116;43.582;1.470;2023-05-07T08:04:24;16.98;82.44
65584;DHT22;62116;43.582;1.470;2023-05-07T08:06:49;16.97;82.68
65584;DHT22;62116;43.582;1.470;2023-05-07T08:09:15;17.03;82.86
65584;DHT22;62116;43.582;1.470;2023-05-07T08:11:40;17.08;82.56
65584;DHT22;62116;43.582;1.470;2023-05-07T08:14:06;17.14;82.94
65584;DHT22;62116;43.582;1.470;2023-05-07T08:16:31;17.17;82.89
65584;DHT22;62116;43.582;1.470;2023-05-07T08:18:57;17.21;83.00
65584;DHT22;62116;43.582;1.470;2023-05-07T08:21:23;17.28;82.78
65584;DHT22;62116;43.582;1.470;2023-05-07T08:23:48;17.31;82.65
65584;DHT22;62116;43.582;1.470;2023-05-07T08:26:14;17.35;82.11
65584;DHT22;62116;43.582;1.470;2023-05-07T08:28:39;17.32;81.77
65584;DHT22;62116;43.582;1.470;2023-05-07T08:31:05;17.41;81.85
65584;DHT22;62116;43.582;1.470;2023-05-07T08:33:30;17.43;81.86
65584;DHT22;62116;43.582;1.470;2023-05-07T08:35:56;17.48;82.07
65584;DHT22;62116;43.582;1.470;2023-05-07T08:38:21;17.48;81.82
65584;DHT22;62116;43.582;1.470;2023-05-07T08:40:47;17.48;80.76
65584;DHT22;62116;43.582;1.470;2023-05-07T08:43:13;17.45;80.85
65584;DHT22;62116;43.582;1.470;2023-05-07T08:45:40;17.43;81.09
65584;DHT22;62116;43.582;1.470;2023-05-07T08:48:09;17.43;80.44
65584;DHT22;62116;43.582;1.470;2023-05-07T08:50:39;17.45;79.96
65584;DHT22;62116;43.582;1.470;2023-05-07T08:53:05;17.45;80.54
65584;DHT22;62116;43.582;1.470;2023-05-07T08:55:31;17.42;80.49
65584;DHT22;62116;43.582;1.470;2023-05-07T08:57:56;17.42;80.30
65584;DHT22;62116;43.582;1.470;2023-05-07T09:00:22;17.43;80.46
65584;DHT22;62116;43.582;1.470;2023-05-07T09:02:48;17.48;80.75
65584;DHT22;62116;43.582;1.470;2023-05-07T09:05:13;17.51;81.38
65584;DHT22;62116;43.582;1.470;2023-05-07T09:07:39;17.53;80.96
65584;DHT22;62116;43.582;1.470;2023-05-07T09:10:05;17.58;80.46
65584;DHT22;62116;43.582;1.470;2023-05-07T09:12:31;17.59;80.61
65584;DHT22;62116;43.582;1.470;2023-05-07T09:14:56;17.66;80.27
65584;DHT22;62116;43.582;1.470;2023-05-07T09:17:22;17.65;80.02
65584;DHT22;62116;43.582;1.470;2023-05-07T09:19:50;17.65;79.70
65584;DHT22;62116;43.582;1.470;2023-05-07T09:22:15;17.68;79.66
65584;DHT22;62116;43.582;1.470;2023-05-07T09:24:47;17.69;79.46
65584;DHT22;62116;43.582;1.470;2023-05-07T09:27:12;17.73;78.82
65584;DHT22;62116;43.582;1.470;2023-05-07T09:29:38;17.71;77.94
65584;DHT22;62116;43.582;1.470;2023-05-07T09:32:05;17.78;78.28
65584;DHT22;62116;43.582;1.470;2023-05-07T09:34:31;17.87;78.28
65584;DHT22;62116;43.582;1.470;2023-05-07T09:37:06;17.93;78.03
65584;DHT22;62116;43.582;1.470;2023-05-07T09:39:42;17.99;78.13
65584;DHT22;62116;43.582;1.470;2023-05-07T09:42:08;18.10;77.88
65584;DHT22;62116;43.582;1.470;2023-05-07T09:44:34;18.19;77.61
65584;DHT22;62116;43.582;1.470;2023-05-07T09:47:04;18.20;77.45
65584;DHT22;62116;43.582;1.470;2023-05-07T09:49:34;18.17;77.01
65584;DHT22;62116;43.582;1.470;2023-05-07T09:52:01;18.19;77.17
65584;DHT22;62116;43.582;1.470;2023-05-07T09:54:27;18.16;76.34
65584;DHT22;62116;43.582;1.470;2023-05-07T09:56:56;18.10;76.78
65584;DHT22;62116;43.582;1.470;2023-05-07T09:59:22;18.05;76.84
65584;DHT22;62116;43.582;1.470;2023-05-07T10:01:48;18.03;77.62
65584;DHT22;62116;43.582;1.470;2023-05-07T10:04:15;18.02;77.44
65584;DHT22;62116;43.582;1.470;2023-05-07T10:06:41;17.96;78.07
65584;DHT22;62116;43.582;1.470;2023-05-07T10:09:08;17.87;78.45
65584;DHT22;62116;43.582;1.470;2023-05-07T10:11:35;17.81;79.20
65584;DHT22;62116;43.582;1.470;2023-05-07T10:14:02;17.73;79.98
65584;DHT22;62116;43.582;1.470;2023-05-07T10:16:34;17.73;80.84
65584;DHT22;62116;43.582;1.470;2023-05-07T10:19:05;17.65;80.80
65584;DHT22;62116;43.582;1.470;2023-05-07T10:21:35;17.58;80.53
65584;DHT22;62116;43.582;1.470;2023-05-07T10:24:21;17.55;80.77
65584;DHT22;62116;43.582;1.470;2023-05-07T10:26:52;17.55;81.39
65584;DHT22;62116;43.582;1.470;2023-05-07T10:34:43;17.76;82.14
65584;DHT22;62116;43.582;1.470;2023-05-07T10:37:09;17.89;81.92
65584;DHT22;62116;43.582;1.470;2023-05-07T10:39:35;17.95;81.64
65584;DHT22;62116;43.582;1.470;2023-05-07T10:42:08;18.00;81.36
65584;DHT22;62116;43.582;1.470;2023-05-07T10:44:34;18.02;80.83
65584;DHT22;62116;43.582;1.470;2023-05-07T10:47:11;18.03;80.79
65584;DHT22;62116;43.582;1.470;2023-05-07T10:52:31;18.17;79.98
65584;DHT22;62116;43.582;1.470;2023-05-07T10:57:40;18.37;79.49
65584;DHT22;62116;43.582;1.470;2023-05-07T11:05:24;18.57;78.74
65584;DHT22;62116;43.582;1.470;2023-05-07T11:08:00;18.64;79.04
65584;DHT22;62116;43.582;1.470;2023-05-07T11:13:14;19.05;78.40
65584;DHT22;62116;43.582;1.470;2023-05-07T11:15:42;19.15;77.01
65584;DHT22;62116;43.582;1.470;2023-05-07T11:18:10;19.14;77.10
65584;DHT22;62116;43.582;1.470;2023-05-07T11:20:53;19.07;75.97
65584;DHT22;62116;43.582;1.470;2023-05-07T11:28:29;18.98;76.92
65584;DHT22;62116;43.582;1.470;2023-05-07T11:30:56;19.05;76.80
65584;DHT22;62116;43.582;1.470;2023-05-07T11:33:22;19.15;76.10
65584;DHT22;62116;43.582;1.470;2023-05-07T11:35:48;19.28;76.22
65584;DHT22;62116;43.582;1.470;2023-05-07T11:38:13;19.45;75.89
65584;DHT22;62116;43.582;1.470;2023-05-07T11:40:51;19.61;74.92
65584;DHT22;62116;43.582;1.470;2023-05-07T11:43:17;19.82;76.38
65584;DHT22;62116;43.582;1.470;2023-05-07T11:45:42;20.03;75.38
65584;DHT22;62116;43.582;1.470;2023-05-07T11:48:08;20.06;73.68
65584;DHT22;62116;43.582;1.470;2023-05-07T11:50:33;20.19;72.49
65584;DHT22;62116;43.582;1.470;2023-05-07T11:52:59;20.20;72.05
65584;DHT22;62116;43.582;1.470;2023-05-07T11:55:24;20.21;71.41
65584;DHT22;62116;43.582;1.470;2023-05-07T11:57:51;20.24;71.53
65584;DHT22;62116;43.582;1.470;2023-05-07T12:00:17;20.29;71.67
65584;DHT22;62116;43.582;1.470;2023-05-07T12:02:43;20.41;72.02
65584;DHT22;62116;43.582;1.470;2023-05-07T12:05:08;20.41;71.10
65584;DHT22;62116;43.582;1.470;2023-05-07T12:07:34;20.40;71.45
65584;DHT22;62116;43.582;1.470;2023-05-07T12:10:04;20.40;71.61
65584;DHT22;62116;43.582;1.470;2023-05-07T12:12:30;20.40;71.23
65584;DHT22;62116;43.582;1.470;2023-05-07T12:14:55;20.41;72.27
65584;DHT22;62116;43.582;1.470;2023-05-07T12:17:21;20.33;70.87
65584;DHT22;62116;43.582;1.470;2023-05-07T12:19:46;20.33;70.27
65584;DHT22;62116;43.582;1.470;2023-05-07T12:22:12;20.24;70.49
65584;DHT22;62116;43.582;1.470;2023-05-07T12:24:48;20.21;68.36
65584;DHT22;62116;43.582;1.470;2023-05-07T12:27:14;20.12;68.96
65584;DHT22;62116;43.582;1.470;2023-05-07T12:29:46;20.13;69.67
65584;DHT22;62116;43.582;1.470;2023-05-07T12:32:18;20.20;69.62
65584;DHT22;62116;43.582;1.470;2023-05-07T12:34:45;20.31;70.23
65584;DHT22;62116;43.582;1.470;2023-05-07T12:37:10;20.39;70.14
65584;DHT22;62116;43.582;1.470;2023-05-07T12:39:37;20.47;68.85
65584;DHT22;62116;43.582;1.470;2023-05-07T12:42:03;20.60;69.06
65584;DHT22;62116;43.582;1.470;2023-05-07T12:44:30;20.65;67.88
65584;DHT22;62116;43.582;1.470;2023-05-07T12:46:55;20.68;68.61
65584;DHT22;62116;43.582;1.470;2023-05-07T12:49:21;20.83;68.79
65584;DHT22;62116;43.582;1.470;2023-05-07T12:51:47;20.87;67.47
65584;DHT22;62116;43.582;1.470;2023-05-07T12:54:27;20.85;66.08
65584;DHT22;62116;43.582;1.470;2023-05-07T12:57:00;20.81;66.07
65584;DHT22;62116;43.582;1.470;2023-05-07T12:59:37;20.70;66.31
65584;DHT22;62116;43.582;1.470;2023-05-07T13:02:03;20.60;66.99
65584;DHT22;62116;43.582;1.470;2023-05-07T13:04:29;20.67;67.06
65584;DHT22;62116;43.582;1.470;2023-05-07T13:06:54;20.68;65.92
65584;DHT22;62116;43.582;1.470;2023-05-07T13:09:20;20.61;65.29
65584;DHT22;62116;43.582;1.470;2023-05-07T13:11:45;20.55;65.16
65584;DHT22;62116;43.582;1.470;2023-05-07T13:14:11;20.53;65.59
65584;DHT22;62116;43.582;1.470;2023-05-07T13:16:37;20.51;66.77
65584;DHT22;62116;43.582;1.470;2023-05-07T13:19:03;20.54;65.69
65584;DHT22;62116;43.582;1.470;2023-05-07T13:21:29;20.63;65.53
65584;DHT22;62116;43.582;1.470;2023-05-07T13:23:57;20.67;65.95
65584;DHT22;62116;43.582;1.470;2023-05-07T13:26:23;20.73;65.40
65584;DHT22;62116;43.582;1.470;2023-05-07T13:28:48;20.70;64.69
65584;DHT22;62116;43.582;1.470;2023-05-07T13:31:14;20.71;64.60
65584;DHT22;62116;43.582;1.470;2023-05-07T13:33:39;20.67;63.76
65584;DHT22;62116;43.582;1.470;2023-05-07T13:36:05;20.68;64.40
65584;DHT22;62116;43.582;1.470;2023-05-07T13:38:31;20.68;64.86
65584;DHT22;62116;43.582;1.470;2023-05-07T13:40:56;20.67;64.45
65584;DHT22;62116;43.582;1.470;2023-05-07T13:43:21;20.71;66.18
65584;DHT22;62116;43.582;1.470;2023-05-07T13:45:47;20.65;64.92
65584;DHT22;62116;43.582;1.470;2023-05-07T13:48:12;20.64;65.19
65584;DHT22;62116;43.582;1.470;2023-05-07T13:50:38;20.64;64.94
65584;DHT22;62116;43.582;1.470;2023-05-07T13:53:03;20.63;66.29
65584;DHT22;62116;43.582;1.470;2023-05-07T13:55:29;20.60;65.33
65584;DHT22;62116;43.582;1.470;2023-05-07T13:57:56;20.55;65.54
65584;DHT22;62116;43.582;1.470;2023-05-07T14:00:23;20.53;65.19
65584;DHT22;62116;43.582;1.470;2023-05-07T14:02:48;20.45;64.73
65584;DHT22;62116;43.582;1.470;2023-05-07T14:05:13;20.48;65.23
65584;DHT22;62116;43.582;1.470;2023-05-07T14:07:39;20.47;65.61
65584;DHT22;62116;43.582;1.470;2023-05-07T14:10:05;20.48;64.83
65584;DHT22;62116;43.582;1.470;2023-05-07T14:12:31;20.53;64.94
65584;DHT22;62116;43.582;1.470;2023-05-07T14:14:57;20.61;64.93
65584;DHT22;62116;43.582;1.470;2023-05-07T14:17:23;20.68;65.77
65584;DHT22;62116;43.582;1.470;2023-05-07T14:19:50;20.81;66.54
65584;DHT22;62116;43.582;1.470;2023-05-07T14:22:16;20.95;65.50
65584;DHT22;62116;43.582;1.470;2023-05-07T14:24:41;20.99;64.29
65584;DHT22;62116;43.582;1.470;2023-05-07T14:27:07;21.12;64.90
65584;DHT22;62116;43.582;1.470;2023-05-07T14:29:32;21.24;63.79
65584;DHT22;62116;43.582;1.470;2023-05-07T14:31:58;21.31;63.10
65584;DHT22;62116;43.582;1.470;2023-05-07T14:34:23;21.38;63.17
65584;DHT22;62116;43.582;1.470;2023-05-07T14:36:49;21.45;62.28
65584;DHT22;62116;43.582;1.470;2023-05-07T14:39:14;21.46;62.36
65584;DHT22;62116;43.582;1.470;2023-05-07T14:41:39;21.49;63.24
65584;DHT22;62116;43.582;1.470;2023-05-07T14:44:05;21.60;63.64
65584;DHT22;62116;43.582;1.470;2023-05-07T14:46:30;21.70;62.24
65584;DHT22;62116;43.582;1.470;2023-05-07T14:48:59;21.66;60.80
65584;DHT22;62116;43.582;1.470;2023-05-07T14:51:24;21.58;61.22
65584;DHT22;62116;43.582;1.470;2023-05-07T14:53:53;21.52;62.54
65584;DHT22;62116;43.582;1.470;2023-05-07T14:56:18;21.42;62.74
65584;DHT22;62116;43.582;1.470;2023-05-07T14:58:46;21.42;64.10
65584;DHT22;62116;43.582;1.470;2023-05-07T15:01:12;21.34;65.33
65584;DHT22;62116;43.582;1.470;2023-05-07T15:03:39;21.25;63.63
65584;DHT22;62116;43.582;1.470;2023-05-07T15:06:04;21.15;63.08
65584;DHT22;62116;43.582;1.470;2023-05-07T15:08:30;21.09;64.58
65584;DHT22;62116;43.582;1.470;2023-05-07T15:10:55;21.06;65.21
65584;DHT22;62116;43.582;1.470;2023-05-07T15:13:21;21.05;66.06
65584;DHT22;62116;43.582;1.470;2023-05-07T15:15:47;21.02;66.71
65584;DHT22;62116;43.582;1.470;2023-05-07T15:18:15;21.04;64.80
65584;DHT22;62116;43.582;1.470;2023-05-07T15:20:41;21.02;63.00
65584;DHT22;62116;43.582;1.470;2023-05-07T15:23:08;20.92;61.07
65584;DHT22;62116;43.582;1.470;2023-05-07T15:25:40;20.83;61.17
65584;DHT22;62116;43.582;1.470;2023-05-07T15:28:06;20.75;60.74
65584;DHT22;62116;43.582;1.470;2023-05-07T15:30:32;20.71;60.94
65584;DHT22;62116;43.582;1.470;2023-05-07T15:32:58;20.67;61.91
65584;DHT22;62116;43.582;1.470;2023-05-07T15:35:23;20.65;61.62
65584;DHT22;62116;43.582;1.470;2023-05-07T15:37:51;20.65;62.66
65584;DHT22;62116;43.582;1.470;2023-05-07T15:40:16;20.67;62.23
65584;DHT22;62116;43.582;1.470;2023-05-07T15:42:43;20.67;62.78
65584;DHT22;62116;43.582;1.470;2023-05-07T15:45:09;20.65;61.87
65584;DHT22;62116;43.582;1.470;2023-05-07T15:47:34;20.64;62.62